createdAt,value
2022-10-09T00:03:23.187Z,4.43
2022-10-09T00:08:27.581Z,4.39
2022-10-09T00:13:30.291Z,4.34
2022-10-09T00:18:33.347Z,4.29
2022-10-09T00:23:37.507Z,4.27
2022-10-09T00:28:40.306Z,4.25
2022-10-09T00:33:43.593Z,4.15
2022-10-09T00:38:48.039Z,4.12
2022-10-09T00:43:53.950Z,4.08
2022-10-09T00:49:05.195Z,4.05
2022-10-09T00:54:13.013Z,3.93
2022-10-09T00:59:16.564Z,3.92
2022-10-09T01:04:19.341Z,3.89
2022-10-09T01:09:28.687Z,3.85
2022-10-09T01:14:37.554Z,3.78
2022-10-09T01:20:04.497Z,3.74
2022-10-09T01:25:10.273Z,3.71
2022-10-09T01:30:14.729Z,3.65
2022-10-09T01:35:19.049Z,3.58
2022-10-09T01:40:22.937Z,3.53
2022-10-09T01:45:36.891Z,3.55
2022-10-09T01:50:44.279Z,3.54
2022-10-09T01:55:52.140Z,3.46
2022-10-09T02:01:03.504Z,3.43
2022-10-09T02:06:08.893Z,3.29
2022-10-09T02:11:12.222Z,3.26
2022-10-09T02:16:22.147Z,3.25
2022-10-09T02:21:30.850Z,3.18
2022-10-09T02:26:33.773Z,3.17
2022-10-09T02:31:40.004Z,3.12
2022-10-09T02:36:42.773Z,3.12
2022-10-09T02:41:45.493Z,3.06
2022-10-09T02:46:49.614Z,2.98
2022-10-09T02:51:52.734Z,3.00
2022-10-09T02:56:55.409Z,2.97
2022-10-09T03:01:59.702Z,2.96
2022-10-09T03:07:03.151Z,2.96
2022-10-09T03:12:06.382Z,2.95
2022-10-09T03:17:10.430Z,3.02
2022-10-09T03:22:13.141Z,3.09
2022-10-09T03:27:15.830Z,3.13
2022-10-09T03:32:20.782Z,3.24
2022-10-09T03:37:23.603Z,3.19
2022-10-09T03:42:26.450Z,3.24
2022-10-09T03:47:30.784Z,3.27
2022-10-09T03:52:33.535Z,3.23
2022-10-09T03:57:37.017Z,3.25
2022-10-09T04:02:41.283Z,3.26
2022-10-09T04:07:44.144Z,3.25
2022-10-09T04:12:47.164Z,3.29
2022-10-09T04:17:51.580Z,3.26
2022-10-09T04:22:54.303Z,3.27
2022-10-09T04:27:56.985Z,3.20
2022-10-09T04:33:01.084Z,3.17
2022-10-09T04:38:03.841Z,3.16
2022-10-09T04:43:06.684Z,3.15
2022-10-09T04:48:10.793Z,3.16
2022-10-09T04:53:13.763Z,3.11
2022-10-09T04:58:16.495Z,3.03
2022-10-09T05:03:20.678Z,2.88
2022-10-09T05:08:23.449Z,2.90
2022-10-09T05:13:26.439Z,2.79
2022-10-09T05:18:31.829Z,2.74
2022-10-09T05:23:35.595Z,2.71
2022-10-09T05:28:38.897Z,2.72
2022-10-09T05:33:43.227Z,2.70
2022-10-09T05:38:46.149Z,2.61
2022-10-09T05:43:50.347Z,2.48
2022-10-09T05:48:56.454Z,2.46
2022-10-09T05:54:02.142Z,2.42
2022-10-09T05:59:06.678Z,2.46
2022-10-09T06:04:15.123Z,2.45
2022-10-09T06:09:19.690Z,2.67
2022-10-09T06:19:52.795Z,2.91
2022-10-09T06:24:55.482Z,3.04
2022-10-09T06:29:58.856Z,3.18
2022-10-09T06:35:02.982Z,3.47
2022-10-09T06:40:06.597Z,3.45
2022-10-09T06:45:10.526Z,3.56
2022-10-09T06:50:16.105Z,3.78
2022-10-09T06:55:18.882Z,3.86
2022-10-09T07:00:21.671Z,4.03
2022-10-09T07:05:25.787Z,4.28
2022-10-09T07:10:28.759Z,4.38
2022-10-09T07:15:31.802Z,4.81
2022-10-09T07:20:37.491Z,5.20
2022-10-09T07:25:40.217Z,5.42
2022-10-09T07:30:43.631Z,5.70
2022-10-09T07:35:55.259Z,6.23
2022-10-09T07:41:01.032Z,6.53
2022-10-09T07:46:04.990Z,6.71
2022-10-09T07:51:10.915Z,7.06
2022-10-09T07:56:18.501Z,7.32
2022-10-09T08:01:22.111Z,7.47
2022-10-09T08:06:27.687Z,7.79
2022-10-09T08:11:31.202Z,7.99
2022-10-09T08:16:33.969Z,8.21
2022-10-09T08:21:38.207Z,8.48
2022-10-09T08:26:40.980Z,8.66
2022-10-09T08:31:43.793Z,8.99
2022-10-09T08:36:48.143Z,9.33
2022-10-09T08:41:53.794Z,9.67
2022-10-09T08:47:08.345Z,10.08
2022-10-09T08:52:25.631Z,10.34
2022-10-09T08:57:32.196Z,10.33
2022-10-09T09:02:48.673Z,10.74
2022-10-09T09:08:02.185Z,11.06
2022-10-09T09:13:20.383Z,11.36
2022-10-09T09:18:40.721Z,11.35
2022-10-09T09:23:48.673Z,11.71
2022-10-09T09:28:56.590Z,12.07
2022-10-09T09:34:04.292Z,12.10
2022-10-09T09:44:35.897Z,12.51
2022-10-09T09:49:38.668Z,12.87
2022-10-09T09:54:49.743Z,13.07
2022-10-09T09:59:52.577Z,13.43
2022-10-09T10:04:59.653Z,13.73
2022-10-09T10:10:05.841Z,13.85
2022-10-09T10:15:18.750Z,13.97
2022-10-09T10:20:21.899Z,14.46
2022-10-09T10:25:30.721Z,14.44
2022-10-09T10:30:36.462Z,14.87
2022-10-09T10:35:42.333Z,15.14
2022-10-09T10:40:51.843Z,15.01
2022-10-09T10:46:03.607Z,15.25
2022-10-09T10:51:17.449Z,15.65
2022-10-09T10:56:29.441Z,15.91
2022-10-09T11:01:42.620Z,16.54
2022-10-09T11:06:54.500Z,16.39
2022-10-09T11:12:15.573Z,17.14
2022-10-09T11:17:33.949Z,17.33
2022-10-09T11:22:59.170Z,17.15
2022-10-09T11:28:08.473Z,17.46
2022-10-09T11:33:27.699Z,17.60
2022-10-09T11:38:36.155Z,17.93
2022-10-09T11:44:14.639Z,18.26
2022-10-09T11:49:26.144Z,19.21
2022-10-09T11:54:30.297Z,19.97
2022-10-09T11:59:36.279Z,19.52
2022-10-09T12:04:54.358Z,19.94
2022-10-09T12:10:06.108Z,20.48
2022-10-09T12:15:25.599Z,21.19
2022-10-09T12:20:30.166Z,21.21
2022-10-09T12:25:41.576Z,22.05
2022-10-09T12:30:49.613Z,21.71
2022-10-09T12:36:04.600Z,21.62
2022-10-09T12:41:19.333Z,20.70
2022-10-09T12:46:34.559Z,19.12
2022-10-09T12:51:38.750Z,18.64
2022-10-09T12:56:41.531Z,18.11
2022-10-09T13:01:45.332Z,17.72
2022-10-09T13:06:52.361Z,17.25
2022-10-09T13:12:00.199Z,16.84
2022-10-09T13:17:04.349Z,16.93
2022-10-09T13:22:19.489Z,16.55
2022-10-09T13:27:25.037Z,16.69
2022-10-09T13:32:28.220Z,16.70
2022-10-09T13:37:32.493Z,16.43
2022-10-09T13:42:37.972Z,16.25
2022-10-09T13:47:40.706Z,16.21
2022-10-09T13:52:44.919Z,15.96
2022-10-09T13:57:49.109Z,16.01
2022-10-09T14:02:52.405Z,16.12
2022-10-09T14:07:56.679Z,16.26
2022-10-09T14:12:59.396Z,16.15
2022-10-09T14:18:02.164Z,16.32
2022-10-09T14:23:06.266Z,16.06
2022-10-09T14:28:09.461Z,16.12
2022-10-09T14:33:12.570Z,16.18
2022-10-09T14:38:16.681Z,16.02
2022-10-09T14:43:20.028Z,16.00
2022-10-09T14:48:22.799Z,15.86
2022-10-09T14:53:26.944Z,15.83
2022-10-09T14:58:31.270Z,15.80
2022-10-09T15:03:35.657Z,15.68
2022-10-09T15:08:41.787Z,15.64
2022-10-09T15:13:44.507Z,15.49
2022-10-09T15:18:49.466Z,15.39
2022-10-09T15:23:54.816Z,15.42
2022-10-09T15:28:58.002Z,15.42
2022-10-09T15:34:03.219Z,15.34
2022-10-09T15:39:08.892Z,15.16
2022-10-09T15:44:16.230Z,15.19
2022-10-09T15:49:19.352Z,15.05
2022-10-09T15:54:23.831Z,14.95
2022-10-09T15:59:27.367Z,14.78
2022-10-09T16:04:55.841Z,14.57
2022-10-09T16:09:59.924Z,14.40
2022-10-09T16:15:03.373Z,14.26
2022-10-09T16:20:07.476Z,14.04
2022-10-09T16:25:12.471Z,13.89
2022-10-09T16:30:15.378Z,13.77
2022-10-09T16:35:18.257Z,13.60
2022-10-09T16:40:32.691Z,13.44
2022-10-09T16:45:45.071Z,13.31
2022-10-09T16:50:47.794Z,13.06
2022-10-09T16:55:52.348Z,12.84
2022-10-09T17:01:04.911Z,12.52
2022-10-09T17:06:12.649Z,12.23
2022-10-09T17:11:17.862Z,12.03
2022-10-09T17:16:22.746Z,11.89
2022-10-09T17:21:29.258Z,11.74
2022-10-09T17:26:39.310Z,11.56
2022-10-09T17:31:42.334Z,11.35
2022-10-09T17:36:46.065Z,11.14
2022-10-09T17:41:50.338Z,10.89
2022-10-09T17:46:53.051Z,10.68
2022-10-09T17:51:56.439Z,10.42
2022-10-09T17:57:02.203Z,10.22
2022-10-09T18:02:05.652Z,10.06
2022-10-09T18:07:08.429Z,9.91
2022-10-09T18:12:12.694Z,9.77
2022-10-09T18:17:15.585Z,9.65
2022-10-09T18:22:18.826Z,9.56
2022-10-09T18:27:23.838Z,9.44
2022-10-09T18:32:26.788Z,9.33
2022-10-09T18:37:29.757Z,9.20
2022-10-09T18:42:33.997Z,9.08
2022-10-09T18:47:36.988Z,9.04
2022-10-09T18:52:42.398Z,8.99
2022-10-09T18:57:48.054Z,8.90
2022-10-09T19:02:51.509Z,8.83
2022-10-09T19:07:55.523Z,8.75
2022-10-09T19:12:59.607Z,8.70
2022-10-09T19:18:03.513Z,8.66
2022-10-09T19:23:06.444Z,8.57
2022-10-09T19:28:10.587Z,8.47
2022-10-09T19:33:13.743Z,8.36
2022-10-09T19:38:17.607Z,8.27
2022-10-09T19:43:23.490Z,8.17
2022-10-09T19:48:26.383Z,8.11
2022-10-09T19:53:29.386Z,8.08
2022-10-09T19:58:33.476Z,8.04
2022-10-09T20:03:36.242Z,8.00
2022-10-09T20:08:40.931Z,7.92
2022-10-09T20:13:45.041Z,7.84
2022-10-09T20:18:47.850Z,7.73
2022-10-09T20:23:50.749Z,7.68
2022-10-09T20:28:54.958Z,7.68
2022-10-09T20:33:57.666Z,7.59
2022-10-09T20:39:03.492Z,7.54
2022-10-09T20:44:07.944Z,7.52
2022-10-09T20:49:13.362Z,7.47
2022-10-09T20:54:18.405Z,7.45
2022-10-09T20:59:22.873Z,7.33
2022-10-09T21:04:25.852Z,7.25
2022-10-09T21:09:32.976Z,7.06
2022-10-09T21:14:37.708Z,6.90
2022-10-09T21:19:40.437Z,6.83
2022-10-09T21:24:43.278Z,6.79
2022-10-09T21:29:47.451Z,6.76
2022-10-09T21:34:50.561Z,6.68
2022-10-09T21:39:53.367Z,6.67
2022-10-09T21:44:57.609Z,6.68
2022-10-09T21:50:00.416Z,6.63
2022-10-09T21:55:04.366Z,6.56
2022-10-09T22:00:10.023Z,6.46
2022-10-09T22:05:12.801Z,6.41
2022-10-09T22:10:15.629Z,6.34
2022-10-09T22:15:19.967Z,6.30
2022-10-09T22:20:22.713Z,6.30
2022-10-09T22:25:25.431Z,6.30
2022-10-09T22:31:04.076Z,6.28
2022-10-09T22:36:09.182Z,6.27
2022-10-09T22:41:14.496Z,6.21
2022-10-09T22:46:20.755Z,6.21
2022-10-09T22:51:25.507Z,6.22
2022-10-09T22:56:31.346Z,6.17
2022-10-09T23:01:39.386Z,6.12
2022-10-09T23:06:43.308Z,6.03
2022-10-09T23:11:46.097Z,5.93
2022-10-09T23:16:50.519Z,5.86
2022-10-09T23:21:53.685Z,5.83
2022-10-09T23:26:56.422Z,5.81
2022-10-09T23:32:00.533Z,5.79
2022-10-09T23:37:03.765Z,5.76
2022-10-09T23:42:06.560Z,5.69
2022-10-09T23:47:10.612Z,5.67
2022-10-09T23:52:13.332Z,5.63
2022-10-09T23:57:16.089Z,5.61
